sensor_id;sensor_type;location;lat;lon;timestamp;P1;durP1;ratioP1;P2;durP2;ratioP2
45764;SDS011;31474;45.332;10.230;2023-10-19T00:02:05;31.42;;;17.27;;
45764;SDS011;31474;45.332;10.230;2023-10-19T00:04:32;34.65;;;17.95;;
45764;SDS011;31474;45.332;10.230;2023-10-19T00:07:00;32.83;;;17.38;;
45764;SDS011;31474;45.332;10.230;2023-10-19T00:09:33;32.28;;;17.33;;
45764;SDS011;31474;45.332;10.230;2023-10-19T00:12:06;37.08;;;17.20;;
45764;SDS011;31474;45.332;10.230;2023-10-19T00:14:34;41.50;;;18.00;;
45764;SDS011;31474;45.332;10.230;2023-10-19T00:17:00;37.42;;;17.55;;
45764;SDS011;31474;45.332;10.230;2023-10-19T00:19:30;34.65;;;17.40;;
45764;SDS011;31474;45.332;10.230;2023-10-19T00:22:02;37.30;;;18.30;;
45764;SDS011;31474;45.332;10.230;2023-10-19T00:24:33;34.17;;;18.63;;
45764;SDS011;31474;45.332;10.230;2023-10-19T00:27:02;40.33;;;17.48;;
45764;SDS011;31474;45.332;10.230;2023-10-19T00:29:48;33.95;;;16.38;;
45764;SDS011;31474;45.332;10.230;2023-10-19T00:32:15;39.63;;;19.17;;
45764;SDS011;31474;45.332;10.230;2023-10-19T00:34:41;30.27;;;15.70;;
45764;SDS011;31474;45.332;10.230;2023-10-19T00:37:14;33.15;;;18.25;;
45764;SDS011;31474;45.332;10.230;2023-10-19T00:39:44;39.53;;;19.35;;
45764;SDS011;31474;45.332;10.230;2023-10-19T00:42:18;41.88;;;17.80;;
45764;SDS011;31474;45.332;10.230;2023-10-19T00:44:48;33.25;;;17.30;;
45764;SDS011;31474;45.332;10.230;2023-10-19T00:47:24;35.03;;;17.23;;
45764;SDS011;31474;45.332;10.230;2023-10-19T00:49:53;37.22;;;17.40;;
45764;SDS011;31474;45.332;10.230;2023-10-19T00:52:20;32.95;;;17.25;;
45764;SDS011;31474;45.332;10.230;2023-10-19T00:54:48;42.60;;;18.92;;
45764;SDS011;31474;45.332;10.230;2023-10-19T00:57:17;35.78;;;17.52;;
45764;SDS011;31474;45.332;10.230;2023-10-19T01:00:03;39.88;;;20.15;;
45764;SDS011;31474;45.332;10.230;2023-10-19T01:02:47;31.23;;;18.02;;
45764;SDS011;31474;45.332;10.230;2023-10-19T01:05:16;37.00;;;17.98;;
45764;SDS011;31474;45.332;10.230;2023-10-19T01:07:46;32.53;;;17.70;;
45764;SDS011;31474;45.332;10.230;2023-10-19T01:10:18;33.53;;;17.92;;
45764;SDS011;31474;45.332;10.230;2023-10-19T01:12:47;42.10;;;17.00;;
45764;SDS011;31474;45.332;10.230;2023-10-19T01:18:02;35.50;;;18.98;;
45764;SDS011;31474;45.332;10.230;2023-10-19T01:20:28;40.45;;;19.85;;
45764;SDS011;31474;45.332;10.230;2023-10-19T01:25:56;37.28;;;18.77;;
45764;SDS011;31474;45.332;10.230;2023-10-19T01:28:26;33.30;;;17.88;;
45764;SDS011;31474;45.332;10.230;2023-10-19T01:31:25;34.60;;;18.20;;
45764;SDS011;31474;45.332;10.230;2023-10-19T01:33:54;36.42;;;19.08;;
45764;SDS011;31474;45.332;10.230;2023-10-19T01:36:25;34.88;;;18.70;;
45764;SDS011;31474;45.332;10.230;2023-10-19T01:38:55;33.90;;;18.08;;
45764;SDS011;31474;45.332;10.230;2023-10-19T01:41:26;41.95;;;20.25;;
45764;SDS011;31474;45.332;10.230;2023-10-19T01:43:53;39.33;;;20.45;;
45764;SDS011;31474;45.332;10.230;2023-10-19T01:46:19;38.63;;;19.40;;
45764;SDS011;31474;45.332;10.230;2023-10-19T01:48:58;36.00;;;17.15;;
45764;SDS011;31474;45.332;10.230;2023-10-19T01:51:24;40.53;;;19.90;;
45764;SDS011;31474;45.332;10.230;2023-10-19T01:53:52;38.40;;;19.10;;
45764;SDS011;31474;45.332;10.230;2023-10-19T01:56:20;43.00;;;20.45;;
45764;SDS011;31474;45.332;10.230;2023-10-19T01:58:47;38.75;;;19.55;;
45764;SDS011;31474;45.332;10.230;2023-10-19T02:01:14;38.63;;;21.05;;
45764;SDS011;31474;45.332;10.230;2023-10-19T02:03:46;41.55;;;19.58;;
45764;SDS011;31474;45.332;10.230;2023-10-19T02:06:13;35.97;;;18.83;;
45764;SDS011;31474;45.332;10.230;2023-10-19T02:08:50;35.63;;;18.83;;
45764;SDS011;31474;45.332;10.230;2023-10-19T02:11:20;37.05;;;18.05;;
45764;SDS011;31474;45.332;10.230;2023-10-19T02:13:47;33.55;;;18.98;;
45764;SDS011;31474;45.332;10.230;2023-10-19T02:16:17;40.10;;;20.38;;
45764;SDS011;31474;45.332;10.230;2023-10-19T02:18:47;40.90;;;20.02;;
45764;SDS011;31474;45.332;10.230;2023-10-19T02:21:14;41.58;;;20.30;;
45764;SDS011;31474;45.332;10.230;2023-10-19T02:23:44;35.70;;;18.88;;
45764;SDS011;31474;45.332;10.230;2023-10-19T02:26:10;42.50;;;20.02;;
45764;SDS011;31474;45.332;10.230;2023-10-19T02:28:39;34.67;;;19.73;;
45764;SDS011;31474;45.332;10.230;2023-10-19T02:31:04;37.25;;;19.17;;
45764;SDS011;31474;45.332;10.230;2023-10-19T02:33:40;35.92;;;18.35;;
45764;SDS011;31474;45.332;10.230;2023-10-19T02:36:10;38.03;;;20.13;;
45764;SDS011;31474;45.332;10.230;2023-10-19T02:38:41;43.60;;;20.20;;
45764;SDS011;31474;45.332;10.230;2023-10-19T02:41:14;35.90;;;19.27;;
45764;SDS011;31474;45.332;10.230;2023-10-19T02:43:41;36.28;;;19.05;;
45764;SDS011;31474;45.332;10.230;2023-10-19T02:46:10;38.70;;;19.95;;
45764;SDS011;31474;45.332;10.230;2023-10-19T02:48:38;38.03;;;19.95;;
45764;SDS011;31474;45.332;10.230;2023-10-19T02:51:09;42.60;;;20.88;;
45764;SDS011;31474;45.332;10.230;2023-10-19T02:53:39;35.60;;;18.75;;
45764;SDS011;31474;45.332;10.230;2023-10-19T02:56:11;41.47;;;20.67;;
45764;SDS011;31474;45.332;10.230;2023-10-19T02:58:41;41.72;;;20.17;;
45764;SDS011;31474;45.332;10.230;2023-10-19T03:01:12;41.17;;;21.15;;
45764;SDS011;31474;45.332;10.230;2023-10-19T03:03:39;39.15;;;20.50;;
45764;SDS011;31474;45.332;10.230;2023-10-19T03:06:04;46.88;;;22.45;;
45764;SDS011;31474;45.332;10.230;2023-10-19T03:08:31;40.88;;;20.95;;
45764;SDS011;31474;45.332;10.230;2023-10-19T03:10:57;43.80;;;21.85;;
45764;SDS011;31474;45.332;10.230;2023-10-19T03:13:29;41.75;;;22.48;;
45764;SDS011;31474;45.332;10.230;2023-10-19T03:15:57;44.90;;;22.02;;
45764;SDS011;31474;45.332;10.230;2023-10-19T03:18:24;43.45;;;21.58;;
45764;SDS011;31474;45.332;10.230;2023-10-19T03:20:51;43.75;;;21.63;;
45764;SDS011;31474;45.332;10.230;2023-10-19T03:23:16;36.63;;;21.45;;
45764;SDS011;31474;45.332;10.230;2023-10-19T03:25:42;44.47;;;21.83;;
45764;SDS011;31474;45.332;10.230;2023-10-19T03:28:20;40.47;;;21.35;;
45764;SDS011;31474;45.332;10.230;2023-10-19T03:30:50;46.70;;;21.73;;
45764;SDS011;31474;45.332;10.230;2023-10-19T03:33:16;43.95;;;22.00;;
45764;SDS011;31474;45.332;10.230;2023-10-19T03:35:43;42.40;;;20.70;;
45764;SDS011;31474;45.332;10.230;2023-10-19T03:38:08;39.30;;;21.70;;
45764;SDS011;31474;45.332;10.230;2023-10-19T03:40:41;39.55;;;21.75;;
45764;SDS011;31474;45.332;10.230;2023-10-19T03:43:16;43.95;;;24.08;;
45764;SDS011;31474;45.332;10.230;2023-10-19T03:45:43;43.35;;;21.70;;
45764;SDS011;31474;45.332;10.230;2023-10-19T03:48:16;47.03;;;23.38;;
45764;SDS011;31474;45.332;10.230;2023-10-19T03:50:49;44.03;;;22.67;;
45764;SDS011;31474;45.332;10.230;2023-10-19T03:53:17;43.60;;;21.95;;
45764;SDS011;31474;45.332;10.230;2023-10-19T03:55:43;46.42;;;23.77;;
45764;SDS011;31474;45.332;10.230;2023-10-19T03:58:09;44.22;;;23.17;;
45764;SDS011;31474;45.332;10.230;2023-10-19T04:00:37;47.67;;;23.20;;
45764;SDS011;31474;45.332;10.230;2023-10-19T04:03:03;48.47;;;24.63;;
45764;SDS011;31474;45.332;10.230;2023-10-19T04:05:29;51.10;;;24.10;;
45764;SDS011;31474;45.332;10.230;2023-10-19T04:07:56;46.20;;;23.38;;
45764;SDS011;31474;45.332;10.230;2023-10-19T04:10:23;46.97;;;24.52;;
45764;SDS011;31474;45.332;10.230;2023-10-19T04:12:55;44.85;;;25.90;;
45764;SDS011;31474;45.332;10.230;2023-10-19T04:15:22;51.22;;;24.58;;
45764;SDS011;31474;45.332;10.230;2023-10-19T04:17:50;52.60;;;25.48;;
45764;SDS011;31474;45.332;10.230;2023-10-19T04:20:18;47.03;;;24.20;;
45764;SDS011;31474;45.332;10.230;2023-10-19T04:22:44;49.70;;;26.88;;
45764;SDS011;31474;45.332;10.230;2023-10-19T04:25:11;54.92;;;26.00;;
45764;SDS011;31474;45.332;10.230;2023-10-19T04:27:38;48.92;;;25.83;;
45764;SDS011;31474;45.332;10.230;2023-10-19T04:30:04;56.00;;;26.48;;
45764;SDS011;31474;45.332;10.230;2023-10-19T04:32:40;56.30;;;27.55;;
45764;SDS011;31474;45.332;10.230;2023-10-19T04:35:10;48.35;;;25.27;;
45764;SDS011;31474;45.332;10.230;2023-10-19T04:37:38;47.55;;;25.98;;
45764;SDS011;31474;45.332;10.230;2023-10-19T04:40:07;50.42;;;25.13;;
45764;SDS011;31474;45.332;10.230;2023-10-19T04:42:34;54.00;;;26.02;;
45764;SDS011;31474;45.332;10.230;2023-10-19T04:45:01;45.97;;;24.65;;
45764;SDS011;31474;45.332;10.230;2023-10-19T04:47:28;49.00;;;24.13;;
45764;SDS011;31474;45.332;10.230;2023-10-19T04:49:54;49.95;;;26.63;;
45764;SDS011;31474;45.332;10.230;2023-10-19T04:52:20;57.33;;;25.63;;
45764;SDS011;31474;45.332;10.230;2023-10-19T04:54:46;49.33;;;25.13;;
45764;SDS011;31474;45.332;10.230;2023-10-19T04:57:11;46.35;;;26.40;;
45764;SDS011;31474;45.332;10.230;2023-10-19T04:59:37;46.28;;;25.50;;
45764;SDS011;31474;45.332;10.230;2023-10-19T05:02:03;51.50;;;26.27;;
45764;SDS011;31474;45.332;10.230;2023-10-19T05:04:30;48.33;;;25.85;;
45764;SDS011;31474;45.332;10.230;2023-10-19T05:06:56;49.65;;;25.25;;
45764;SDS011;31474;45.332;10.230;2023-10-19T05:09:22;47.78;;;25.88;;
45764;SDS011;31474;45.332;10.230;2023-10-19T05:11:47;49.05;;;24.70;;
45764;SDS011;31474;45.332;10.230;2023-10-19T05:14:13;45.97;;;23.88;;
45764;SDS011;31474;45.332;10.230;2023-10-19T05:16:39;48.05;;;26.15;;
45764;SDS011;31474;45.332;10.230;2023-10-19T05:19:05;54.58;;;25.60;;
45764;SDS011;31474;45.332;10.230;2023-10-19T05:21:30;44.38;;;24.35;;
45764;SDS011;31474;45.332;10.230;2023-10-19T05:23:56;53.65;;;26.50;;
45764;SDS011;31474;45.332;10.230;2023-10-19T05:26:25;47.47;;;24.60;;
45764;SDS011;31474;45.332;10.230;2023-10-19T05:28:51;50.20;;;26.60;;
45764;SDS011;31474;45.332;10.230;2023-10-19T05:31:17;51.42;;;25.55;;
45764;SDS011;31474;45.332;10.230;2023-10-19T05:33:42;46.10;;;25.10;;
45764;SDS011;31474;45.332;10.230;2023-10-19T05:36:08;55.58;;;24.98;;
45764;SDS011;31474;45.332;10.230;2023-10-19T05:38:34;46.40;;;25.88;;
45764;SDS011;31474;45.332;10.230;2023-10-19T05:40:59;46.45;;;26.45;;
45764;SDS011;31474;45.332;10.230;2023-10-19T05:43:25;46.92;;;26.55;;
45764;SDS011;31474;45.332;10.230;2023-10-19T05:45:51;51.65;;;24.00;;
45764;SDS011;31474;45.332;10.230;2023-10-19T05:48:17;46.33;;;23.98;;
45764;SDS011;31474;45.332;10.230;2023-10-19T05:50:43;44.90;;;25.08;;
45764;SDS011;31474;45.332;10.230;2023-10-19T05:53:09;51.53;;;25.70;;
45764;SDS011;31474;45.332;10.230;2023-10-19T05:55:34;45.67;;;24.30;;
45764;SDS011;31474;45.332;10.230;2023-10-19T05:58:01;41.92;;;23.92;;
45764;SDS011;31474;45.332;10.230;2023-10-19T06:00:29;46.30;;;25.17;;
45764;SDS011;31474;45.332;10.230;2023-10-19T06:02:55;52.08;;;25.33;;
45764;SDS011;31474;45.332;10.230;2023-10-19T06:05:22;47.38;;;24.15;;
45764;SDS011;31474;45.332;10.230;2023-10-19T06:07:49;50.40;;;25.13;;
45764;SDS011;31474;45.332;10.230;2023-10-19T06:10:16;49.97;;;25.05;;
45764;SDS011;31474;45.332;10.230;2023-10-19T06:12:48;51.35;;;25.48;;
45764;SDS011;31474;45.332;10.230;2023-10-19T06:15:15;54.50;;;25.23;;
45764;SDS011;31474;45.332;10.230;2023-10-19T06:17:42;48.85;;;24.77;;
45764;SDS011;31474;45.332;10.230;2023-10-19T06:20:09;50.05;;;25.45;;
45764;SDS011;31474;45.332;10.230;2023-10-19T06:22:48;51.03;;;25.38;;
45764;SDS011;31474;45.332;10.230;2023-10-19T06:25:16;51.60;;;25.27;;
45764;SDS011;31474;45.332;10.230;2023-10-19T06:27:43;47.40;;;26.20;;
45764;SDS011;31474;45.332;10.230;2023-10-19T06:30:09;46.92;;;25.75;;
45764;SDS011;31474;45.332;10.230;2023-10-19T06:32:35;46.50;;;25.05;;
45764;SDS011;31474;45.332;10.230;2023-10-19T06:35:02;53.20;;;24.65;;
45764;SDS011;31474;45.332;10.230;2023-10-19T06:37:28;56.45;;;26.90;;
45764;SDS011;31474;45.332;10.230;2023-10-19T06:39:54;52.03;;;26.75;;
45764;SDS011;31474;45.332;10.230;2023-10-19T06:42:20;51.67;;;25.40;;
45764;SDS011;31474;45.332;10.230;2023-10-19T06:44:46;48.10;;;26.00;;
45764;SDS011;31474;45.332;10.230;2023-10-19T06:47:11;55.13;;;26.35;;
45764;SDS011;31474;45.332;10.230;2023-10-19T06:49:38;45.97;;;25.52;;
45764;SDS011;31474;45.332;10.230;2023-10-19T06:52:04;45.38;;;23.70;;
45764;SDS011;31474;45.332;10.230;2023-10-19T06:54:30;52.17;;;25.90;;
45764;SDS011;31474;45.332;10.230;2023-10-19T06:56:57;46.13;;;24.05;;
45764;SDS011;31474;45.332;10.230;2023-10-19T06:59:22;49.47;;;25.02;;
45764;SDS011;31474;45.332;10.230;2023-10-19T07:01:49;44.88;;;23.98;;
45764;SDS011;31474;45.332;10.230;2023-10-19T07:04:15;52.63;;;24.98;;
45764;SDS011;31474;45.332;10.230;2023-10-19T07:06:40;50.83;;;25.23;;
45764;SDS011;31474;45.332;10.230;2023-10-19T07:09:06;44.30;;;23.80;;
45764;SDS011;31474;45.332;10.230;2023-10-19T07:11:35;45.60;;;24.52;;
45764;SDS011;31474;45.332;10.230;2023-10-19T07:14:01;43.58;;;23.70;;
45764;SDS011;31474;45.332;10.230;2023-10-19T07:16:26;44.45;;;24.75;;
45764;SDS011;31474;45.332;10.230;2023-10-19T07:18:52;46.25;;;24.40;;
45764;SDS011;31474;45.332;10.230;2023-10-19T07:21:18;46.35;;;25.30;;
45764;SDS011;31474;45.332;10.230;2023-10-19T07:23:44;45.75;;;24.30;;
45764;SDS011;31474;45.332;10.230;2023-10-19T07:26:10;46.22;;;22.65;;
45764;SDS011;31474;45.332;10.230;2023-10-19T07:28:39;43.33;;;22.10;;
45764;SDS011;31474;45.332;10.230;2023-10-19T07:31:05;44.15;;;22.42;;
45764;SDS011;31474;45.332;10.230;2023-10-19T07:33:37;46.70;;;25.98;;
45764;SDS011;31474;45.332;10.230;2023-10-19T07:36:11;46.15;;;25.13;;
45764;SDS011;31474;45.332;10.230;2023-10-19T07:38:39;41.88;;;23.52;;
45764;SDS011;31474;45.332;10.230;2023-10-19T07:41:07;49.67;;;24.42;;
45764;SDS011;31474;45.332;10.230;2023-10-19T07:43:34;45.53;;;23.38;;
45764;SDS011;31474;45.332;10.230;2023-10-19T07:46:00;42.35;;;22.60;;
45764;SDS011;31474;45.332;10.230;2023-10-19T07:48:26;39.58;;;23.58;;
45764;SDS011;31474;45.332;10.230;2023-10-19T07:50:52;48.72;;;24.95;;
45764;SDS011;31474;45.332;10.230;2023-10-19T07:53:18;53.10;;;25.20;;
45764;SDS011;31474;45.332;10.230;2023-10-19T07:55:44;47.70;;;25.27;;
45764;SDS011;31474;45.332;10.230;2023-10-19T07:58:09;46.72;;;23.80;;
45764;SDS011;31474;45.332;10.230;2023-10-19T08:00:36;48.80;;;25.05;;
45764;SDS011;31474;45.332;10.230;2023-10-19T08:03:01;53.67;;;25.92;;
45764;SDS011;31474;45.332;10.230;2023-10-19T08:05:28;54.17;;;26.70;;
45764;SDS011;31474;45.332;10.230;2023-10-19T08:07:53;48.60;;;25.38;;
45764;SDS011;31474;45.332;10.230;2023-10-19T08:10:19;48.03;;;25.33;;
45764;SDS011;31474;45.332;10.230;2023-10-19T08:12:46;51.05;;;26.55;;
45764;SDS011;31474;45.332;10.230;2023-10-19T08:15:13;50.17;;;25.67;;
45764;SDS011;31474;45.332;10.230;2023-10-19T08:17:41;47.60;;;26.63;;
45764;SDS011;31474;45.332;10.230;2023-10-19T08:20:09;43.28;;;23.88;;
45764;SDS011;31474;45.332;10.230;2023-10-19T08:22:44;35.33;;;22.05;;
45764;SDS011;31474;45.332;10.230;2023-10-19T08:25:11;40.58;;;23.40;;
45764;SDS011;31474;45.332;10.230;2023-10-19T08:27:39;45.45;;;24.65;;
45764;SDS011;31474;45.332;10.230;2023-10-19T08:30:09;44.47;;;23.88;;
45764;SDS011;31474;45.332;10.230;2023-10-19T08:32:36;42.90;;;23.98;;
45764;SDS011;31474;45.332;10.230;2023-10-19T08:35:02;39.45;;;23.15;;
45764;SDS011;31474;45.332;10.230;2023-10-19T08:37:29;41.33;;;24.42;;
45764;SDS011;31474;45.332;10.230;2023-10-19T08:39:54;42.38;;;23.08;;
45764;SDS011;31474;45.332;10.230;2023-10-19T08:42:20;40.42;;;22.42;;
45764;SDS011;31474;45.332;10.230;2023-10-19T08:44:46;33.97;;;21.80;;
45764;SDS011;31474;45.332;10.230;2023-10-19T08:47:12;41.63;;;23.13;;
45764;SDS011;31474;45.332;10.230;2023-10-19T08:49:37;39.38;;;25.52;;
45764;SDS011;31474;45.332;10.230;2023-10-19T08:52:04;45.28;;;27.50;;
45764;SDS011;31474;45.332;10.230;2023-10-19T08:54:32;39.15;;;24.13;;
45764;SDS011;31474;45.332;10.230;2023-10-19T08:56:59;39.88;;;24.10;;
45764;SDS011;31474;45.332;10.230;2023-10-19T08:59:25;41.22;;;22.25;;
45764;SDS011;31474;45.332;10.230;2023-10-19T09:01:59;31.65;;;19.85;;
45764;SDS011;31474;45.332;10.230;2023-10-19T09:04:31;38.80;;;23.50;;
45764;SDS011;31474;45.332;10.230;2023-10-19T09:06:57;32.42;;;19.75;;
45764;SDS011;31474;45.332;10.230;2023-10-19T09:09:22;38.83;;;21.83;;
45764;SDS011;31474;45.332;10.230;2023-10-19T09:11:53;34.90;;;20.80;;
45764;SDS011;31474;45.332;10.230;2023-10-19T09:14:32;34.40;;;19.75;;
45764;SDS011;31474;45.332;10.230;2023-10-19T09:16:59;35.88;;;20.60;;
45764;SDS011;31474;45.332;10.230;2023-10-19T09:22:21;37.80;;;20.23;;
45764;SDS011;31474;45.332;10.230;2023-10-19T09:24:50;35.53;;;21.23;;
45764;SDS011;31474;45.332;10.230;2023-10-19T09:27:20;37.03;;;20.83;;
45764;SDS011;31474;45.332;10.230;2023-10-19T09:29:49;31.92;;;20.73;;
45764;SDS011;31474;45.332;10.230;2023-10-19T09:32:18;35.00;;;20.08;;
45764;SDS011;31474;45.332;10.230;2023-10-19T09:34:44;33.22;;;20.08;;
45764;SDS011;31474;45.332;10.230;2023-10-19T09:37:12;23.40;;;17.55;;
45764;SDS011;31474;45.332;10.230;2023-10-19T09:39:38;34.63;;;19.67;;
45764;SDS011;31474;45.332;10.230;2023-10-19T09:42:10;35.17;;;20.33;;
45764;SDS011;31474;45.332;10.230;2023-10-19T09:44:40;26.52;;;16.60;;
45764;SDS011;31474;45.332;10.230;2023-10-19T09:47:29;38.70;;;23.02;;
45764;SDS011;31474;45.332;10.230;2023-10-19T09:49:56;35.15;;;21.38;;
45764;SDS011;31474;45.332;10.230;2023-10-19T09:52:22;34.85;;;21.65;;
45764;SDS011;31474;45.332;10.230;2023-10-19T09:57:23;31.73;;;21.15;;
45764;SDS011;31474;45.332;10.230;2023-10-19T09:59:56;70.53;;;36.60;;
45764;SDS011;31474;45.332;10.230;2023-10-19T10:02:34;41.50;;;25.77;;
45764;SDS011;31474;45.332;10.230;2023-10-19T10:05:00;25.92;;;17.60;;
45764;SDS011;31474;45.332;10.230;2023-10-19T10:07:26;35.22;;;21.98;;
45764;SDS011;31474;45.332;10.230;2023-10-19T10:09:52;28.58;;;18.80;;
45764;SDS011;31474;45.332;10.230;2023-10-19T10:12:23;26.55;;;18.25;;
45764;SDS011;31474;45.332;10.230;2023-10-19T10:15:03;29.05;;;19.42;;
45764;SDS011;31474;45.332;10.230;2023-10-19T10:17:33;20.60;;;16.63;;
45764;SDS011;31474;45.332;10.230;2023-10-19T10:22:42;26.13;;;17.70;;
45764;SDS011;31474;45.332;10.230;2023-10-19T10:25:24;19.73;;;15.77;;
45764;SDS011;31474;45.332;10.230;2023-10-19T10:27:54;28.83;;;18.48;;
45764;SDS011;31474;45.332;10.230;2023-10-19T10:30:20;21.92;;;16.45;;
45764;SDS011;31474;45.332;10.230;2023-10-19T10:32:47;27.48;;;18.98;;
45764;SDS011;31474;45.332;10.230;2023-10-19T10:38:07;26.02;;;17.73;;
45764;SDS011;31474;45.332;10.230;2023-10-19T10:40:43;25.58;;;18.15;;
45764;SDS011;31474;45.332;10.230;2023-10-19T10:43:09;23.25;;;16.10;;
45764;SDS011;31474;45.332;10.230;2023-10-19T10:45:36;25.40;;;17.95;;
45764;SDS011;31474;45.332;10.230;2023-10-19T10:48:02;26.42;;;17.13;;
45764;SDS011;31474;45.332;10.230;2023-10-19T10:50:29;27.52;;;17.67;;
45764;SDS011;31474;45.332;10.230;2023-10-19T10:52:55;20.33;;;15.30;;
45764;SDS011;31474;45.332;10.230;2023-10-19T10:55:23;26.92;;;18.20;;
45764;SDS011;31474;45.332;10.230;2023-10-19T10:57:52;19.85;;;15.75;;
45764;SDS011;31474;45.332;10.230;2023-10-19T11:00:19;26.77;;;18.38;;
45764;SDS011;31474;45.332;10.230;2023-10-19T11:02:58;18.40;;;15.10;;
45764;SDS011;31474;45.332;10.230;2023-10-19T11:05:25;22.20;;;16.17;;
45764;SDS011;31474;45.332;10.230;2023-10-19T11:10:32;18.58;;;13.02;;
45764;SDS011;31474;45.332;10.230;2023-10-19T11:13:05;19.42;;;15.15;;
45764;SDS011;31474;45.332;10.230;2023-10-19T11:15:32;17.73;;;14.13;;
45764;SDS011;31474;45.332;10.230;2023-10-19T11:17:58;12.32;;;11.02;;
45764;SDS011;31474;45.332;10.230;2023-10-19T11:20:25;17.83;;;13.98;;
45764;SDS011;31474;45.332;10.230;2023-10-19T11:22:54;36.42;;;17.70;;
45764;SDS011;31474;45.332;10.230;2023-10-19T11:25:22;19.67;;;13.63;;
45764;SDS011;31474;45.332;10.230;2023-10-19T11:27:49;17.92;;;13.68;;
45764;SDS011;31474;45.332;10.230;2023-10-19T11:30:28;11.38;;;10.18;;
45764;SDS011;31474;45.332;10.230;2023-10-19T11:32:55;16.88;;;12.50;;
45764;SDS011;31474;45.332;10.230;2023-10-19T11:35:30;13.13;;;11.48;;
45764;SDS011;31474;45.332;10.230;2023-10-19T11:37:57;18.17;;;14.45;;
45764;SDS011;31474;45.332;10.230;2023-10-19T11:40:24;13.18;;;11.23;;
45764;SDS011;31474;45.332;10.230;2023-10-19T11:42:51;14.57;;;11.48;;
45764;SDS011;31474;45.332;10.230;2023-10-19T11:45:17;14.27;;;11.13;;
45764;SDS011;31474;45.332;10.230;2023-10-19T11:47:43;11.45;;;9.05;;
45764;SDS011;31474;45.332;10.230;2023-10-19T11:50:10;13.73;;;10.70;;
45764;SDS011;31474;45.332;10.230;2023-10-19T11:52:39;11.32;;;10.15;;
45764;SDS011;31474;45.332;10.230;2023-10-19T11:55:05;15.55;;;11.75;;
45764;SDS011;31474;45.332;10.230;2023-10-19T11:57:33;13.77;;;11.15;;
45764;SDS011;31474;45.332;10.230;2023-10-19T11:59:58;11.82;;;10.65;;
45764;SDS011;31474;45.332;10.230;2023-10-19T12:02:24;16.00;;;10.90;;
45764;SDS011;31474;45.332;10.230;2023-10-19T12:04:51;11.02;;;9.93;;
45764;SDS011;31474;45.332;10.230;2023-10-19T12:07:17;13.75;;;10.80;;
45764;SDS011;31474;45.332;10.230;2023-10-19T12:09:43;15.05;;;11.52;;
45764;SDS011;31474;45.332;10.230;2023-10-19T12:12:10;16.05;;;12.40;;
45764;SDS011;31474;45.332;10.230;2023-10-19T12:14:36;11.18;;;10.00;;
45764;SDS011;31474;45.332;10.230;2023-10-19T12:17:02;16.08;;;12.60;;
45764;SDS011;31474;45.332;10.230;2023-10-19T12:19:31;13.77;;;11.07;;
45764;SDS011;31474;45.332;10.230;2023-10-19T12:21:57;13.18;;;11.82;;
45764;SDS011;31474;45.332;10.230;2023-10-19T12:24:24;17.67;;;12.98;;
45764;SDS011;31474;45.332;10.230;2023-10-19T12:26:53;14.00;;;11.77;;
45764;SDS011;31474;45.332;10.230;2023-10-19T12:29:18;13.38;;;11.38;;
45764;SDS011;31474;45.332;10.230;2023-10-19T12:31:46;12.20;;;10.77;;
45764;SDS011;31474;45.332;10.230;2023-10-19T12:34:12;15.02;;;11.93;;
45764;SDS011;31474;45.332;10.230;2023-10-19T12:36:38;10.63;;;9.52;;
45764;SDS011;31474;45.332;10.230;2023-10-19T12:39:05;14.85;;;12.13;;
45764;SDS011;31474;45.332;10.230;2023-10-19T12:41:31;13.07;;;10.23;;
45764;SDS011;31474;45.332;10.230;2023-10-19T12:43:58;15.55;;;11.75;;
45764;SDS011;31474;45.332;10.230;2023-10-19T12:46:27;28.17;;;19.77;;
45764;SDS011;31474;45.332;10.230;2023-10-19T12:48:54;14.65;;;11.68;;
45764;SDS011;31474;45.332;10.230;2023-10-19T12:51:21;15.82;;;12.80;;
45764;SDS011;31474;45.332;10.230;2023-10-19T12:53:51;13.60;;;12.20;;
45764;SDS011;31474;45.332;10.230;2023-10-19T12:56:18;17.23;;;11.45;;
45764;SDS011;31474;45.332;10.230;2023-10-19T12:58:44;9.98;;;8.98;;
45764;SDS011;31474;45.332;10.230;2023-10-19T13:01:09;10.52;;;8.88;;
45764;SDS011;31474;45.332;10.230;2023-10-19T13:03:42;11.03;;;9.70;;
45764;SDS011;31474;45.332;10.230;2023-10-19T13:06:10;12.90;;;10.20;;
45764;SDS011;31474;45.332;10.230;2023-10-19T13:08:37;10.95;;;8.52;;
45764;SDS011;31474;45.332;10.230;2023-10-19T13:11:05;14.10;;;10.63;;
45764;SDS011;31474;45.332;10.230;2023-10-19T13:13:40;9.02;;;7.95;;
45764;SDS011;31474;45.332;10.230;2023-10-19T13:16:06;12.68;;;10.55;;
45764;SDS011;31474;45.332;10.230;2023-10-19T13:18:34;11.80;;;8.68;;
45764;SDS011;31474;45.332;10.230;2023-10-19T13:21:05;12.88;;;9.68;;
45764;SDS011;31474;45.332;10.230;2023-10-19T13:23:34;13.05;;;9.13;;
45764;SDS011;31474;45.332;10.230;2023-10-19T13:26:00;10.35;;;8.75;;
45764;SDS011;31474;45.332;10.230;2023-10-19T13:28:33;10.20;;;8.47;;
45764;SDS011;31474;45.332;10.230;2023-10-19T13:31:02;12.18;;;9.30;;
45764;SDS011;31474;45.332;10.230;2023-10-19T13:33:29;9.68;;;8.55;;
45764;SDS011;31474;45.332;10.230;2023-10-19T13:35:54;12.90;;;9.25;;
45764;SDS011;31474;45.332;10.230;2023-10-19T13:38:20;8.75;;;7.78;;
45764;SDS011;31474;45.332;10.230;2023-10-19T13:40:46;12.35;;;9.60;;
45764;SDS011;31474;45.332;10.230;2023-10-19T13:43:12;8.50;;;7.38;;
45764;SDS011;31474;45.332;10.230;2023-10-19T13:45:39;9.75;;;8.70;;
45764;SDS011;31474;45.332;10.230;2023-10-19T13:48:08;11.68;;;9.75;;
45764;SDS011;31474;45.332;10.230;2023-10-19T13:50:35;9.20;;;8.13;;
45764;SDS011;31474;45.332;10.230;2023-10-19T13:53:05;14.07;;;11.05;;
45764;SDS011;31474;45.332;10.230;2023-10-19T13:55:30;9.13;;;8.18;;
45764;SDS011;31474;45.332;10.230;2023-10-19T13:57:57;10.68;;;8.15;;
45764;SDS011;31474;45.332;10.230;2023-10-19T14:00:23;8.85;;;7.90;;
45764;SDS011;31474;45.332;10.230;2023-10-19T14:02:52;13.73;;;9.63;;
45764;SDS011;31474;45.332;10.230;2023-10-19T14:05:19;9.55;;;8.55;;
45764;SDS011;31474;45.332;10.230;2023-10-19T14:07:48;18.33;;;12.20;;
45764;SDS011;31474;45.332;10.230;2023-10-19T14:10:14;14.32;;;9.52;;
45764;SDS011;31474;45.332;10.230;2023-10-19T14:12:40;11.68;;;9.23;;
45764;SDS011;31474;45.332;10.230;2023-10-19T14:15:15;14.32;;;10.43;;
45764;SDS011;31474;45.332;10.230;2023-10-19T14:17:45;10.07;;;9.07;;
45764;SDS011;31474;45.332;10.230;2023-10-19T14:20:13;12.77;;;9.38;;
45764;SDS011;31474;45.332;10.230;2023-10-19T14:22:48;11.18;;;8.95;;
45764;SDS011;31474;45.332;10.230;2023-10-19T14:25:14;11.68;;;9.82;;
45764;SDS011;31474;45.332;10.230;2023-10-19T14:27:41;12.63;;;9.80;;
45764;SDS011;31474;45.332;10.230;2023-10-19T14:30:08;10.02;;;7.82;;
45764;SDS011;31474;45.332;10.230;2023-10-19T14:32:42;11.30;;;9.88;;
45764;SDS011;31474;45.332;10.230;2023-10-19T14:35:09;11.73;;;9.85;;
45764;SDS011;31474;45.332;10.230;2023-10-19T14:37:38;12.27;;;9.85;;